Time;durP1;ratioP1;P1;durP2;ratioP2;P2;SDS_P1;SDS_P2;PMS_P1;PMS_P2;Temp;Humidity;BMP_temperature;BMP_pressure;BME280_temperature;BME280_humidity;BME280_pressure;Samples;Min_cycle;Max_cycle;Signal;HPM_P1;HPM_P2
2022/08/11 00:01:47;;;;;;;4.32;2.15;;;21.50;62.10;;;;;;6883297;28;20434;-79
2022/08/11 00:05:13;;;;;;;6.28;2.03;;;21.50;62.60;;;;;;6885693;28;20481;-78
2022/08/11 00:08:38;;;;;;;5.13;2.10;;;21.50;63.20;;;;;;6888260;28;20434;-79
2022/08/11 00:12:01;;;;;;;4.43;2.25;;;21.40;63.30;;;;;;6885646;28;20439;-80
2022/08/11 00:15:25;;;;;;;4.90;2.40;;;21.40;64.50;;;;;;6887020;28;20442;-80
2022/08/11 00:18:50;;;;;;;4.60;2.00;;;21.30;63.90;;;;;;6886395;28;20442;-78
2022/08/11 00:22:20;;;;;;;5.10;2.13;;;21.20;63.90;;;;;;6886965;28;20437;-78
2022/08/11 00:25:47;;;;;;;5.13;2.20;;;21.00;64.10;;;;;;6885119;28;20442;-79
2022/08/11 00:29:11;;;;;;;3.90;2.00;;;21.00;64.30;;;;;;6886506;28;20438;-78
2022/08/11 00:32:34;;;;;;;3.83;2.10;;;20.90;63.90;;;;;;6892045;28;20465;-80
2022/08/11 00:35:59;;;;;;;4.28;2.10;;;20.90;63.10;;;;;;6891716;28;20438;-79
2022/08/11 00:39:24;;;;;;;4.47;2.10;;;20.80;63.80;;;;;;6891639;28;20880;-79
2022/08/11 00:43:01;;;;;;;4.75;2.03;;;20.80;64.50;;;;;;6892251;28;20434;-80
2022/08/11 00:46:42;;;;;;;4.67;2.10;;;20.70;65.00;;;;;;6889388;28;20430;-79
2022/08/11 00:50:17;;;;;;;5.90;2.13;;;20.70;65.20;;;;;;6915505;28;20540;-80
2022/08/11 00:53:49;;;;;;;5.10;2.20;;;20.50;64.10;;;;;;6911110;28;20429;-79
2022/08/11 00:57:45;;;;;;;3.70;2.10;;;20.50;64.50;;;;;;6892218;28;20434;-79
2022/08/11 01:01:21;;;;;;;4.07;2.30;;;20.40;65.60;;;;;;6898231;28;20437;-80
2022/08/11 01:05:16;;;;;;;3.70;2.15;;;20.30;65.30;;;;;;6903191;28;20475;-81
2022/08/11 01:09:36;;;;;;;4.70;2.40;;;20.10;65.60;;;;;;6897104;28;20438;-79
2022/08/11 01:13:10;;;;;;;4.60;2.10;;;20.10;66.30;;;;;;6910328;28;20922;-79
2022/08/11 01:17:35;;;;;;;4.97;2.20;;;20.20;67.60;;;;;;6890961;28;20437;-79
2022/08/11 01:21:20;;;;;;;4.07;2.23;;;20.10;66.60;;;;;;6887564;28;20438;-78
2022/08/11 01:25:20;;;;;;;3.65;1.98;;;20.00;67.30;;;;;;6890366;28;20438;-78
2022/08/11 01:29:34;;;;;;;4.57;2.30;;;19.90;67.10;;;;;;6895455;28;20434;-78
2022/08/11 01:34:07;;;;;;;4.95;2.10;;;19.90;66.70;;;;;;6889545;28;20442;-83
2022/08/11 01:38:14;;;;;;;5.03;2.50;;;19.90;67.40;;;;;;6864193;28;20776;-78
2022/08/11 01:46:12;;;;;;;4.65;2.30;;;19.80;67.60;;;;;;6833913;28;20467;-80
2022/08/11 01:49:40;;;;;;;4.45;2.25;;;19.80;67.80;;;;;;6889865;28;20442;-80
2022/08/11 01:53:13;;;;;;;4.18;2.40;;;19.80;67.30;;;;;;6888998;28;20801;-80
2022/08/11 01:57:12;;;;;;;4.55;2.45;;;19.70;67.50;;;;;;6889875;28;20442;-82
2022/08/11 02:00:51;;;;;;;4.55;2.40;;;19.60;68.90;;;;;;6887942;28;20472;-78
2022/08/11 02:04:25;;;;;;;6.23;2.57;;;19.60;68.10;;;;;;6877080;28;20492;-78
2022/08/11 02:07:59;;;;;;;4.20;2.30;;;19.60;69.00;;;;;;6888619;28;20431;-80
2022/08/11 02:11:32;;;;;;;5.85;2.30;;;19.70;69.10;;;;;;6889612;28;20434;-82
2022/08/11 02:15:11;;;;;;;4.63;2.33;;;19.70;68.90;;;;;;6888627;28;20510;-79
2022/08/11 02:26:09;;;;;;;4.68;2.50;;;19.50;70.00;;;;;;6888367;28;20443;-78
2022/08/11 02:29:49;;;;;;;5.30;2.55;;;19.40;69.30;;;;;;6871775;28;20571;-79
2022/08/11 02:33:22;;;;;;;4.00;2.60;;;19.30;68.70;;;;;;6888268;28;20445;-80
2022/08/11 02:36:55;;;;;;;4.50;2.60;;;19.30;70.30;;;;;;6888855;28;20438;-81
2022/08/11 02:40:34;;;;;;;4.68;2.70;;;19.30;70.10;;;;;;6889152;28;20460;-79
2022/08/11 02:44:15;;;;;;;5.18;2.67;;;19.30;70.10;;;;;;6886174;28;20477;-79
2022/08/11 02:49:52;;;;;;;6.30;2.70;;;19.40;70.60;;;;;;6888448;28;20430;-80
2022/08/11 02:51:39;;;;;;;5.00;2.85;;;19.30;71.00;;;;;;6888100;28;20422;-79
2022/08/11 02:55:23;;;;;;;4.70;2.93;;;19.20;71.10;;;;;;6903173;28;20464;-80
2022/08/11 03:02:46;;;;;;;4.80;2.90;;;18.90;71.90;;;;;;6887078;28;20434;-80
2022/08/11 03:06:24;;;;;;;5.00;2.90;;;18.90;72.30;;;;;;6904530;28;20453;-80
2022/08/11 03:09:55;;;;;;;6.53;3.08;;;18.90;72.50;;;;;;6894615;28;20448;-80
2022/08/11 03:17:17;;;;;;;5.03;3.00;;;18.90;72.30;;;;;;6912762;28;20468;-78
2022/08/11 03:20:46;;;;;;;5.57;3.03;;;18.70;72.60;;;;;;6913283;28;20437;-80
2022/08/11 03:24:15;;;;;;;5.30;2.80;;;18.60;73.30;;;;;;6901859;28;20442;-79
2022/08/11 03:27:51;;;;;;;4.93;2.90;;;18.50;73.10;;;;;;6887550;28;20477;-82
2022/08/11 03:31:24;;;;;;;5.15;2.80;;;18.40;73.60;;;;;;6898029;28;20898;-79
2022/08/11 03:34:48;;;;;;;5.97;2.93;;;18.40;73.90;;;;;;6910686;28;20441;-80
2022/08/11 03:38:15;;;;;;;4.55;2.70;;;18.30;74.00;;;;;;6913863;28;20448;-81
2022/08/11 03:41:48;;;;;;;6.78;3.00;;;18.20;73.80;;;;;;6911425;28;20448;-82
2022/08/11 03:45:25;;;;;;;5.00;2.88;;;18.20;74.10;;;;;;6896681;28;20448;-80
2022/08/11 03:49:03;;;;;;;5.07;2.70;;;18.20;74.10;;;;;;6896154;28;20449;-83
2022/08/11 03:52:42;;;;;;;5.40;3.00;;;18.20;74.10;;;;;;6887363;28;20448;-84
2022/08/11 03:56:51;;;;;;;5.03;2.90;;;18.20;74.20;;;;;;6887641;28;20497;-84
2022/08/11 04:00:42;;;;;;;5.03;2.92;;;18.10;74.10;;;;;;6887587;28;20473;-83
2022/08/11 04:04:54;;;;;;;5.47;2.83;;;18.10;75.20;;;;;;6886022;28;20442;-81
2022/08/11 04:08:53;;;;;;;5.35;2.80;;;18.20;75.30;;;;;;6887399;28;20430;-82
2022/08/11 04:13:03;;;;;;;5.50;3.10;;;18.20;75.60;;;;;;6887554;28;20437;-83
2022/08/11 04:16:42;;;;;;;5.65;2.92;;;18.30;75.60;;;;;;6887684;28;20441;-82
2022/08/11 04:20:49;;;;;;;5.78;2.90;;;18.30;75.90;;;;;;6886960;28;20449;-84
2022/08/11 04:24:45;;;;;;;5.32;2.88;;;18.20;75.70;;;;;;6887070;28;20442;-82
2022/08/11 04:28:40;;;;;;;5.60;2.92;;;18.20;76.00;;;;;;6886545;28;20857;-83
2022/08/11 04:32:32;;;;;;;5.73;3.00;;;18.20;76.40;;;;;;6890603;28;20434;-83
2022/08/11 04:36:03;;;;;;;5.30;3.10;;;18.30;76.00;;;;;;6878803;28;20430;-83
2022/08/11 04:39:48;;;;;;;5.22;2.95;;;18.20;76.20;;;;;;6888642;28;20469;-83
2022/08/11 04:44:00;;;;;;;6.10;2.90;;;18.10;76.40;;;;;;6887202;28;20784;-83
2022/08/11 05:05:29;;;;;;;5.93;3.10;;;17.80;77.40;;;;;;6859832;28;20432;-82
2022/08/11 05:08:41;;;;;;;5.40;3.40;;;17.70;78.80;;;;;;6859454;28;20439;-81
2022/08/11 05:12:21;;;;;;;4.97;3.20;;;17.70;77.60;;;;;;6859717;28;20440;-82
2022/08/11 05:56:27;;;;;;;7.43;3.53;;;18.20;78.70;;;;;;6890136;28;20434;-83
2022/08/11 05:59:50;;;;;;;7.13;3.45;;;18.20;78.60;;;;;;6893113;28;20781;-82
2022/08/11 06:03:25;;;;;;;6.65;3.20;;;18.20;78.80;;;;;;6889073;28;20502;-83
2022/08/11 06:06:53;;;;;;;6.63;3.63;;;18.30;79.80;;;;;;6888680;28;20523;-83
2022/08/11 06:10:26;;;;;;;6.90;3.67;;;18.40;78.40;;;;;;6888333;28;20573;-81
2022/08/11 06:13:51;;;;;;;6.82;3.58;;;18.50;78.50;;;;;;6887986;28;20442;-83
2022/08/11 06:17:13;;;;;;;6.47;3.60;;;18.60;78.50;;;;;;6888350;28;20943;-82
2022/08/11 06:20:47;;;;;;;8.35;3.72;;;18.60;78.30;;;;;;6887942;28;20950;-82
2022/08/11 06:24:13;;;;;;;6.53;3.70;;;18.70;77.00;;;;;;6888477;28;20430;-83
2022/08/11 06:27:38;;;;;;;6.93;3.60;;;18.80;77.20;;;;;;6887236;28;20427;-83
2022/08/11 06:31:10;;;;;;;7.47;3.47;;;18.90;77.00;;;;;;6887619;28;20430;-83
2022/08/11 06:34:58;;;;;;;6.37;3.60;;;19.00;76.80;;;;;;6888180;28;20470;-83
2022/08/11 06:38:41;;;;;;;8.45;3.65;;;19.10;76.30;;;;;;6888821;28;20792;-83
2022/08/11 06:42:09;;;;;;;7.50;3.30;;;19.20;76.00;;;;;;6888023;28;20442;-82
2022/08/11 06:45:38;;;;;;;6.43;3.38;;;19.30;76.10;;;;;;6896012;28;20438;-82
2022/08/11 06:49:04;;;;;;;7.77;3.30;;;19.40;76.20;;;;;;6824839;28;1834536;-83
2022/08/11 06:52:31;;;;;;;7.43;3.37;;;19.50;75.90;;;;;;6888969;28;20529;-82
2022/08/11 07:03:21;;;;;;;6.27;3.10;;;19.70;75.30;;;;;;6887878;28;20434;-77
2022/08/11 07:29:46;;;;;;;5.30;2.80;;;20.70;72.70;;;;;;6883826;28;20431;-75
2022/08/11 07:33:10;;;;;;;5.93;3.10;;;20.80;72.30;;;;;;6883976;28;20472;-77
2022/08/11 07:36:34;;;;;;;5.20;2.80;;;20.90;72.10;;;;;;6881994;28;20465;-78
2022/08/11 07:40:00;;;;;;;7.50;3.03;;;21.00;71.70;;;;;;6882511;28;20501;-77
2022/08/11 07:43:22;;;;;;;6.78;3.00;;;21.10;71.70;;;;;;6883953;28;20936;-77
2022/08/11 07:54:07;;;;;;;7.25;4.20;;;21.40;70.90;;;;;;6910712;28;20457;-81
2022/08/11 08:19:48;;;;;;;6.75;3.50;;;22.00;67.90;;;;;;6910032;28;20444;-77
2022/08/11 08:23:11;;;;;;;7.05;2.92;;;22.10;66.80;;;;;;6909571;28;20468;-77
2022/08/11 08:34:10;;;;;;;5.78;2.70;;;22.40;66.00;;;;;;6907930;28;20425;-78
2022/08/11 08:37:32;;;;;;;6.28;2.75;;;22.60;65.00;;;;;;6909322;28;20499;-76
2022/08/11 08:40:55;;;;;;;5.72;2.53;;;22.60;64.50;;;;;;6909176;28;20445;-77
2022/08/11 08:44:19;;;;;;;5.63;2.63;;;22.80;63.80;;;;;;6892232;28;20453;-78
2022/08/11 08:47:43;;;;;;;4.93;2.58;;;22.80;63.60;;;;;;6886084;28;20479;-77
2022/08/11 08:54:57;;;;;;;5.90;2.80;;;23.00;62.00;;;;;;6914803;28;20503;-78
2022/08/11 08:58:22;;;;;;;5.97;2.80;;;23.10;61.80;;;;;;6914637;28;20436;-79
2022/08/11 09:01:49;;;;;;;4.68;2.40;;;23.10;61.10;;;;;;6914215;28;20476;-78
2022/08/11 09:05:12;;;;;;;5.78;2.60;;;23.20;60.20;;;;;;6914150;28;20540;-79
2022/08/11 09:08:36;;;;;;;5.35;2.63;;;23.40;60.50;;;;;;6914495;28;20790;-78
2022/08/11 09:11:59;;;;;;;6.78;2.40;;;23.40;60.00;;;;;;6914866;28;20432;-77
2022/08/11 09:15:22;;;;;;;4.65;2.42;;;23.50;59.90;;;;;;6913620;28;21002;-79
2022/08/11 09:18:44;;;;;;;5.45;2.50;;;23.60;59.60;;;;;;6916851;28;20452;-78
2022/08/11 09:29:31;;;;;;;10.33;2.60;;;23.80;58.80;;;;;;6913529;28;20432;-80
2022/08/11 09:32:56;;;;;;;7.43;2.80;;;24.00;58.50;;;;;;6914068;28;20490;-76
2022/08/11 09:47:28;;;;;;;4.75;2.08;;;24.20;54.50;;;;;;6911910;28;20457;-78
2022/08/11 09:50:54;;;;;;;7.10;2.50;;;24.40;54.90;;;;;;6886163;28;20445;-79
2022/08/11 09:54:17;;;;;;;5.00;2.20;;;24.50;55.10;;;;;;6886117;28;20480;-79
2022/08/11 10:01:27;;;;;;;5.85;2.10;;;24.70;52.80;;;;;;6885986;28;20454;-79
2022/08/11 10:04:51;;;;;;;5.45;2.03;;;24.80;53.40;;;;;;6885905;28;20959;-80
2022/08/11 10:08:13;;;;;;;4.60;2.10;;;24.80;52.40;;;;;;6886044;28;20489;-77
2022/08/11 10:11:38;;;;;;;5.32;2.00;;;24.90;52.10;;;;;;6885707;28;20469;-77
2022/08/11 10:18:51;;;;;;;4.32;1.90;;;25.00;51.00;;;;;;6885423;28;20430;-76
2022/08/11 10:37:02;;;;;;;3.70;1.70;;;25.30;50.60;;;;;;6885183;28;20422;-78
2022/08/11 10:40:25;;;;;;;4.18;1.80;;;25.40;49.40;;;;;;6885124;28;20446;-77
2022/08/11 10:43:46;;;;;;;5.82;1.75;;;25.50;50.00;;;;;;6885099;28;20487;-83
2022/08/11 11:01:57;;;;;;;5.22;1.73;;;25.80;46.90;;;;;;6874056;28;20478;-84
2022/08/11 11:05:27;;;;;;;5.95;1.77;;;25.90;47.30;;;;;;6889222;28;20521;-85
2022/08/11 11:08:55;;;;;;;4.70;1.80;;;25.90;47.50;;;;;;6864227;28;20484;-86
2022/08/11 11:19:55;;;;;;;4.70;1.70;;;26.30;46.90;;;;;;6861385;28;20790;-85
2022/08/11 11:23:22;;;;;;;3.30;1.60;;;26.20;46.50;;;;;;6890105;28;20441;-86
2022/08/11 11:26:55;;;;;;;6.82;4.05;;;26.20;45.70;;;;;;6889344;28;20915;-84
2022/08/11 11:30:19;;;;;;;4.45;1.70;;;26.30;46.50;;;;;;6888562;28;20441;-85
2022/08/11 11:34:13;;;;;;;4.28;1.80;;;26.30;46.90;;;;;;6889149;28;20523;-87
2022/08/11 11:37:36;;;;;;;3.15;1.50;;;26.40;45.70;;;;;;6899058;28;20485;-87
2022/08/11 11:44:39;;;;;;;5.13;1.80;;;26.50;46.30;;;;;;6864004;28;20988;-86
2022/08/11 11:48:04;;;;;;;3.80;1.70;;;26.50;45.60;;;;;;6873601;28;20571;-89
2022/08/11 11:51:27;;;;;;;3.97;1.52;;;26.60;46.70;;;;;;6924217;28;20445;-86
2022/08/11 11:54:52;;;;;;;4.18;1.80;;;26.70;44.40;;;;;;6918130;28;20580;-88
2022/08/11 12:01:56;;;;;;;3.15;1.63;;;26.80;45.10;;;;;;6918328;28;20444;-87
2022/08/11 12:05:20;;;;;;;3.80;1.60;;;27.00;45.10;;;;;;6917764;28;20451;-89
2022/08/11 12:08:44;;;;;;;3.85;1.50;;;27.00;44.50;;;;;;6917819;28;20455;-86
2022/08/11 12:15:50;;;;;;;3.92;1.50;;;27.20;43.90;;;;;;6895966;28;20430;-88
2022/08/11 12:19:17;;;;;;;4.47;1.50;;;27.20;43.70;;;;;;6890461;28;20453;-88
2022/08/11 12:30:07;;;;;;;4.68;1.70;;;27.50;43.80;;;;;;6918765;28;20515;-88
2022/08/11 12:33:30;;;;;;;4.38;1.70;;;27.60;44.40;;;;;;6915803;28;20978;-86
2022/08/11 12:36:57;;;;;;;5.53;1.70;;;27.80;44.80;;;;;;6918532;28;20634;-87
2022/08/11 12:51:58;;;;;;;5.45;1.70;;;28.30;43.80;;;;;;6819269;28;20462;-88
2022/08/11 13:06:24;;;;;;;4.80;1.95;;;28.60;43.60;;;;;;6891329;28;20797;-90
2022/08/11 13:09:47;;;;;;;3.67;1.60;;;28.80;43.30;;;;;;6873580;28;20429;-89
2022/08/11 13:13:10;;;;;;;5.20;1.75;;;29.00;42.10;;;;;;6894182;28;20445;-88
2022/08/11 13:17:19;;;;;;;2.97;1.48;;;28.90;41.90;;;;;;6895475;28;20440;-91
2022/08/11 13:20:21;;;;;;;3.42;1.60;;;29.10;41.40;;;;;;6892715;28;20453;-87
2022/08/11 13:23:45;;;;;;;3.88;1.50;;;29.20;42.00;;;;;;6892058;28;20434;-87
2022/08/11 13:27:11;;;;;;;3.78;1.52;;;29.50;42.00;;;;;;6872695;28;20916;-89
2022/08/11 13:34:16;;;;;;;4.72;1.70;;;29.70;42.20;;;;;;6879121;28;20434;-88
2022/08/11 13:37:39;;;;;;;3.80;1.40;;;29.80;42.30;;;;;;6894069;28;20472;-89
2022/08/11 13:41:36;;;;;;;3.60;1.58;;;29.90;42.00;;;;;;6877289;28;20442;-89
2022/08/11 13:44:44;;;;;;;3.58;1.50;;;29.80;41.20;;;;;;6895046;28;20525;-89
2022/08/11 13:48:10;;;;;;;3.75;1.45;;;29.80;41.40;;;;;;6901356;28;20918;-87
2022/08/11 13:51:33;;;;;;;3.77;1.60;;;29.80;41.10;;;;;;6895443;28;20434;-91
2022/08/11 13:54:56;;;;;;;4.07;1.55;;;30.00;41.50;;;;;;6890966;28;20446;-81
2022/08/11 13:58:19;;;;;;;4.00;1.52;;;30.30;41.60;;;;;;6901826;28;20437;-84
2022/08/11 14:01:49;;;;;;;3.50;1.50;;;30.50;41.30;;;;;;6891772;28;20454;-87
2022/08/11 14:05:18;;;;;;;4.07;1.60;;;30.70;41.30;;;;;;6890605;28;20816;-90
2022/08/11 14:08:41;;;;;;;3.97;1.60;;;30.80;41.10;;;;;;6872421;28;20441;-86
2022/08/11 14:15:52;;;;;;;3.63;1.55;;;31.00;41.80;;;;;;6879618;28;20442;-80
2022/08/11 14:19:17;;;;;;;3.92;1.63;;;30.80;40.90;;;;;;6899514;28;20918;-79
2022/08/11 14:22:47;;;;;;;4.53;1.60;;;31.00;41.10;;;;;;6903277;28;20434;-79
2022/08/11 14:26:25;;;;;;;4.00;1.70;;;30.90;40.00;;;;;;6884490;28;20861;-77
2022/08/11 14:29:47;;;;;;;4.53;1.70;;;30.80;40.80;;;;;;6878403;28;20504;-82
2022/08/11 14:33:09;;;;;;;3.83;1.57;;;30.80;40.20;;;;;;6903776;28;20488;-79
2022/08/11 14:36:34;;;;;;;4.27;1.80;;;30.90;40.00;;;;;;6900513;28;20487;-77
2022/08/11 14:47:03;;;;;;;3.55;1.50;;;30.60;40.00;;;;;;6896715;28;20489;-78
2022/08/11 14:47:24;;;;;;;4.93;1.67;;;30.30;40.20;;;;;;6894081;28;21148;-76
2022/08/11 14:50:47;;;;;;;5.07;1.90;;;30.30;40.90;;;;;;6884968;28;20445;-78
2022/08/11 14:57:51;;;;;;;5.45;1.98;;;30.20;40.50;;;;;;6884189;28;20866;-81
2022/08/11 15:04:51;;;;;;;4.30;1.88;;;30.40;41.30;;;;;;6885130;28;20505;-80
2022/08/11 15:08:15;;;;;;;4.63;2.13;;;30.60;41.20;;;;;;6888482;28;20905;-78
2022/08/11 15:19:00;;;;;;;4.13;1.98;;;30.50;39.90;;;;;;6869225;28;20434;-78
2022/08/11 15:26:07;;;;;;;4.80;1.73;;;30.90;40.30;;;;;;6884155;28;20525;-80
2022/08/11 15:48:36;;;;;;;4.87;1.80;;;31.20;39.40;;;;;;6881263;28;20443;-77
2022/08/11 15:52:03;;;;;;;3.63;1.80;;;31.00;39.70;;;;;;6880894;28;20446;-76
2022/08/11 15:55:28;;;;;;;5.85;1.70;;;31.00;39.30;;;;;;6891579;28;21262;-79
2022/08/11 16:06:15;;;;;;;7.57;1.85;;;31.20;39.50;;;;;;6893213;28;20426;-76
2022/08/11 16:09:43;;;;;;;4.22;1.60;;;31.20;38.60;;;;;;6898952;28;20483;-77
2022/08/11 16:16:49;;;;;;;5.17;1.73;;;31.30;39.10;;;;;;6881994;28;20519;-77
2022/08/11 16:20:14;;;;;;;3.90;1.50;;;31.30;39.20;;;;;;6879281;28;20940;-77
2022/08/11 16:23:43;;;;;;;3.90;1.60;;;31.40;39.00;;;;;;6867443;28;20444;-76
2022/08/11 16:27:06;;;;;;;3.20;1.40;;;31.40;39.00;;;;;;6862692;28;20586;-77
2022/08/11 16:30:30;;;;;;;5.03;1.60;;;31.40;38.20;;;;;;6908924;28;20440;-76
2022/08/11 16:33:54;;;;;;;3.05;1.60;;;31.10;38.70;;;;;;6906453;28;20483;-76
2022/08/11 16:41:01;;;;;;;3.85;1.50;;;31.30;38.80;;;;;;6905528;28;20440;-78
2022/08/11 16:48:07;;;;;;;4.40;1.50;;;31.40;39.00;;;;;;6855659;28;20889;-76
2022/08/11 16:51:31;;;;;;;4.25;1.58;;;31.40;39.20;;;;;;6885931;28;20445;-79
2022/08/11 16:54:53;;;;;;;3.50;1.67;;;31.30;39.30;;;;;;6887248;28;20991;-78
2022/08/11 17:02:02;;;;;;;4.60;1.60;;;31.10;38.50;;;;;;6879360;28;20990;-84
2022/08/11 17:16:34;;;;;;;3.70;1.50;;;31.40;38.80;;;;;;6885524;28;20870;-79
2022/08/11 17:20:02;;;;;;;4.80;1.60;;;31.30;37.50;;;;;;6888314;28;20442;-77
2022/08/11 17:27:06;;;;;;;3.30;1.70;;;31.20;37.50;;;;;;6885766;28;20478;-77
2022/08/11 17:37:50;;;;;;;4.30;1.70;;;31.40;38.70;;;;;;6885544;28;20998;-80
2022/08/11 17:48:37;;;;;;;4.10;1.60;;;31.10;40.20;;;;;;6884238;28;20478;-78
2022/08/11 17:59:52;;;;;;;6.63;3.23;;;31.30;39.20;;;;;;6840442;28;20505;-81
2022/08/11 18:03:31;;;;;;;4.40;1.90;;;31.20;39.00;;;;;;6862754;28;20616;-78
2022/08/11 18:06:54;;;;;;;3.85;1.70;;;31.20;38.60;;;;;;6884828;28;20438;-77
